Observation data for Guthrie on 05/25/2020      Previous  Date  Next       Current Mesonet Observations  Soil Data  Daily Summary Page  Observations in Plain Language
KPFS 250500Z 05016G24KT 17/14 A2977 RMK A01 T01690137  RH  085%=      5-min Rain = 0
KPFS 250505Z 04015G22KT 17/14 A2976 RMK A01 T01670139  RH  088%=      5-min Rain = 0
KPFS 250510Z 04017G27KT 17/14 A2976 RMK A01 T01670141  RH  089%=      5-min Rain = 0
KPFS 250515Z 05017G24KT 17/14 A2978 RMK A01 T01680141  RH  088%=      5-min Rain = 0
KPFS 250520Z 05018G26KT 17/14 A2978 RMK A01 T01670141  RH  088%=      5-min Rain = 0
KPFS 250525Z 05017G25KT 17/14 A2979 RMK A01 T01660142  RH  089%=      5-min Rain = 0
KPFS 250530Z 05019G26KT 17/14 A298 RMK A01 T01650142  RH  090%=      5-min Rain = 0
KPFS 250535Z 05019G26KT 17/14 A298 RMK A01 T01660142  RH  090%=      5-min Rain = 0
KPFS 250540Z 06017G27KT 17/14 A2981 RMK A01 T01650143  RH  091%=      5-min Rain = 0
KPFS 250545Z 06017G28KT 17/14 A2982 RMK A01 T01650144  RH  091%=      5-min Rain = 0
KPFS 250550Z 06018G27KT 16/14 A2982 RMK A01 T01640144  RH  092%=      5-min Rain = 0
KPFS 250555Z 07017G23KT 16/14 A2982 RMK A01 T01630144  RH  092%=      5-min Rain = 0
KPFS 250600Z 07016G23KT 16/14 A2982 RMK A01 T01620143  RH  092%=      5-min Rain = 0
KPFS 250605Z 06018G25KT 16/14 A2983 RMK A01 T01620142  RH  092%=      5-min Rain = 0
KPFS 250610Z 05016G22KT 16/14 A2983 RMK A01 T01620142  RH  092%=      5-min Rain = 0
KPFS 250615Z 06016G22KT 16/14 A2983 RMK A01 T01620142  RH  092%=      5-min Rain = 0
KPFS 250620Z 06016G22KT 16/14 A2983 RMK A01 T01620142  RH  092%=      5-min Rain = 0
KPFS 250625Z 06015G24KT 16/14 A2983 RMK A01 T01620142  RH  092%=      5-min Rain = 0
KPFS 250630Z 06013G19KT 16/14 A2983 RMK A01 T01620142  RH  092%=      5-min Rain = 0
KPFS 250635Z 07013G20KT 16/14 A2983 RMK A01 T01610141  RH  092%=      5-min Rain = 0
KPFS 250640Z 06014G21KT 16/14 A2983 RMK A01 T01600141  RH  092%=      5-min Rain = 0
KPFS 250645Z 07013G19KT 16/14 A2983 RMK A01 T01600140  RH  092%=      5-min Rain = 0
KPFS 250650Z 07013KT 16/14 A2982 RMK A01 T01590140  RH  092%=      5-min Rain = 0
KPFS 250655Z 06012G17KT 16/14 A2982 RMK A01 T01590139  RH  092%=      5-min Rain = 0
KPFS 250700Z 07012G18KT 16/14 A2982 RMK A01 T01580139  RH  092%=      5-min Rain = 0
KPFS 250705Z 07011KT 16/14 A2981 RMK A01 T01580138  RH  092%=      5-min Rain = 0
KPFS 250710Z 07010G15KT 16/14 A2981 RMK A01 T01570137  RH  091%=      5-min Rain = 0
KPFS 250715Z 06009KT 16/14 A2981 RMK A01 T01570137  RH  091%=      5-min Rain = 0
KPFS 250720Z 06008G13KT 16/14 A2982 RMK A01 T01570136  RH  091%=      5-min Rain = 0
KPFS 250725Z 06008KT 16/14 A2982 RMK A01 T01560136  RH  091%=      5-min Rain = 0
KPFS 250730Z 06007G12KT 16/14 A2982 RMK A01 T01560135  RH  091%=      5-min Rain = 0
KPFS 250735Z 06007KT 16/14 A2981 RMK A01 T01550135  RH  091%=      5-min Rain = 0
KPFS 250740Z 05007KT 16/14 A2981 RMK A01 T01550135  RH  092%=      5-min Rain = 0
KPFS 250745Z 04007KT 15/14 A2981 RMK A01 T01540135  RH  092%=      5-min Rain = 0
KPFS 250750Z 03006KT 15/14 A2981 RMK A01 T01540135  RH  092%=      5-min Rain = 0
KPFS 250755Z 03006KT 15/14 A298 RMK A01 T01540135  RH  093%=      5-min Rain = 0
KPFS 250800Z 03004KT 15/14 A298 RMK A01 T01530135  RH  093%=      5-min Rain = 0
KPFS 250805Z 06003KT 15/14 A298 RMK A01 T01530135  RH  093%=      5-min Rain = 0
KPFS 250810Z 12002KT 15/14 A298 RMK A01 T01530136  RH  093%=      5-min Rain = 0
KPFS 250815Z 23001KT 15/14 A298 RMK A01 T01520136  RH  093%=      5-min Rain = 0
KPFS 250820Z 29002KT 15/14 A298 RMK A01 T01520136  RH  094%=      5-min Rain = 0
KPFS 250825Z 25002KT 15/14 A298 RMK A01 T01520136  RH  094%=      5-min Rain = 0
KPFS 250830Z 26003KT 15/14 A298 RMK A01 T01520136  RH  094%=      5-min Rain = 0
KPFS 250835Z 26004KT 15/14 A2979 RMK A01 T01510136  RH  094%=      5-min Rain = 0
KPFS 250840Z 26004KT 15/14 A2979 RMK A01 T01510137  RH  095%=      5-min Rain = 0
KPFS 250845Z 25004KT 15/14 A2979 RMK A01 T01510137  RH  095%=      5-min Rain = 0
KPFS 250850Z 28004KT 15/14 A2979 RMK A01 T01510137  RH  095%=      5-min Rain = 0
KPFS 250855Z 28005KT 15/14 A2979 RMK A01 T01510137  RH  095%=      5-min Rain = 0
KPFS 250900Z 27005KT 15/14 A2979 RMK A01 T01510137  RH  095%=      5-min Rain = 0
KPFS 250905Z 29003KT 15/14 A2979 RMK A01 T01510137  RH  095%=      5-min Rain = 0
KPFS 250910Z 30002KT 15/14 A2978 RMK A01 T01510137  RH  096%=      5-min Rain = 0
KPFS 250915Z 28003KT 15/14 A2978 RMK A01 T01500137  RH  096%=      5-min Rain = 0
KPFS 250920Z 25003KT 15/14 A2978 RMK A01 T01510137  RH  096%=      5-min Rain = 0
KPFS 250925Z 24003KT 15/14 A2979 RMK A01 T01510137  RH  096%=      5-min Rain = 0
KPFS 250930Z 28002KT 15/14 A2979 RMK A01 T01510137  RH  096%=      5-min Rain = 0
KPFS 250935Z 29003KT 15/14 A2979 RMK A01 T01500137  RH  096%=      5-min Rain = 0
KPFS 250940Z 30004KT 15/14 A2979 RMK A01 T01510137  RH  096%=      5-min Rain = 0
KPFS 250945Z 31003KT 15/14 A298 RMK A01 T01510137  RH  096%=      5-min Rain = 0
KPFS 250950Z 32003KT 15/14 A298 RMK A01 T01510138  RH  096%=      5-min Rain = 0
KPFS 250955Z 32004KT 15/14 A298 RMK A01 T01510137  RH  096%=      5-min Rain = 0
KPFS 251000Z 32004KT 15/14 A298 RMK A01 T01510138  RH  096%=      5-min Rain = 0
KPFS 251005Z 32005KT 15/14 A2981 RMK A01 T01520139  RH  096%=      5-min Rain = 0
KPFS 251010Z 31004KT 15/14 A2981 RMK A01 T01520139  RH  095%=      5-min Rain = 0
KPFS 251015Z 29003KT 15/14 A2981 RMK A01 T01520138  RH  095%=      5-min Rain = 0
KPFS 251020Z 27003KT 15/14 A2981 RMK A01 T01520138  RH  095%=      5-min Rain = 0
KPFS 251025Z 26003KT 15/14 A298 RMK A01 T01520138  RH  095%=      5-min Rain = 0
KPFS 251030Z 24003KT 15/14 A298 RMK A01 T01520138  RH  095%=      5-min Rain = 0
KPFS 251035Z 25004KT 15/14 A298 RMK A01 T01530138  RH  095%=      5-min Rain = 0
KPFS 251040Z 20002KT 15/14 A2979 RMK A01 T01530138  RH  094%=      5-min Rain = 0
KPFS 251045Z 23001KT 15/14 A298 RMK A01 T01530137  RH  094%=      5-min Rain = 0
KPFS 251050Z 33001KT 15/14 A298 RMK A01 T01530137  RH  094%=      5-min Rain = 0
KPFS 251055Z 12002KT 15/14 A298 RMK A01 T01530137  RH  094%=      5-min Rain = 0
KPFS 251100Z 19002KT 15/14 A2981 RMK A01 T01530137  RH  094%=      5-min Rain = 0
KPFS 251105Z 22001KT 15/14 A2982 RMK A01 T01530137  RH  094%=      5-min Rain = 0
KPFS 251110Z 18002KT 15/14 A2983 RMK A01 T01540138  RH  094%=      5-min Rain = 0
KPFS 251115Z 20002KT 15/14 A2983 RMK A01 T01540137  RH  094%=      5-min Rain = 0
KPFS 251120Z 19001KT 15/14 A2983 RMK A01 T01530137  RH  094%=      5-min Rain = 0
KPFS 251125Z 21001KT 15/14 A2984 RMK A01 T01540138  RH  094%=      5-min Rain = 0
KPFS 251130Z 02002KT 15/14 A2984 RMK A01 T01540138  RH  094%=      5-min Rain = 0
KPFS 251135Z 02006KT 15/14 A2985 RMK A01 T01540138  RH  094%=      5-min Rain = 0
KPFS 251140Z 01006KT 16/14 A2985 RMK A01 T01550139  RH  094%=      5-min Rain = 0
KPFS 251145Z 02005KT 16/14 A2986 RMK A01 T01550140  RH  095%=      5-min Rain = 0
KPFS 251150Z 03006KT 16/14 A2986 RMK A01 T01550140  RH  095%=      5-min Rain = 0
KPFS 251155Z 03007KT 15/14 A2987 RMK A01 T01540140  RH  095%=      5-min Rain = 0
KPFS 251200Z 02008KT 15/14 A2987 RMK A01 T01540140  RH  095%=      5-min Rain = 0
KPFS 251205Z 02007KT 15/14 A2987 RMK A01 T01540140  RH  095%=      5-min Rain = 0
KPFS 251210Z 01006KT 15/14 A2987 RMK A01 T01540140  RH  095%=      5-min Rain = 0
KPFS 251215Z 00006KT 15/14 A2988 RMK A01 T01540140  RH  095%=      5-min Rain = 0
KPFS 251220Z 01005KT 16/14 A2988 RMK A01 T01550141  RH  095%=      5-min Rain = 0
KPFS 251225Z 35005KT 16/14 A2988 RMK A01 T01560141  RH  095%=      5-min Rain = 0
KPFS 251230Z 32004KT 16/14 A2988 RMK A01 T01570141  RH  094%=      5-min Rain = 0
KPFS 251235Z 28006KT 16/14 A2988 RMK A01 T01590142  RH  094%=      5-min Rain = 0
KPFS 251240Z 29009G14KT 16/14 A2987 RMK A01 T01580140  RH  093%=      5-min Rain = 0
KPFS 251245Z 35008KT 16/14 A2988 RMK A01 T01600137  RH  090%=      5-min Rain = 0
KPFS 251250Z 01005G10KT 17/13 A2989 RMK A01 T01650134  RH  085%=      5-min Rain = 0
KPFS 251255Z 36009KT 17/13 A2988 RMK A01 T01660132  RH  084%=      5-min Rain = 0
KPFS 251300Z 35012G19KT 17/13 A2988 RMK A01 T01690130  RH  081%=      5-min Rain = 0
KPFS 251305Z 35011KT 17/13 A2988 RMK A01 T01700130  RH  081%=      5-min Rain = 0
KPFS 251310Z 35012G17KT 17/13 A2988 RMK A01 T01700131  RH  081%=      5-min Rain = 0
KPFS 251315Z 36012G18KT 17/13 A2989 RMK A01 T01700132  RH  082%=      5-min Rain = 0
KPFS 251320Z 00012G17KT 17/13 A2989 RMK A01 T01700132  RH  081%=      5-min Rain = 0
KPFS 251325Z 00011G18KT 17/13 A2989 RMK A01 T01700132  RH  081%=      5-min Rain = 0
KPFS 251330Z 01012KT 17/13 A2989 RMK A01 T01710134  RH  082%=      5-min Rain = 0
KPFS 251335Z 00012KT 17/13 A2989 RMK A01 T01710133  RH  082%=      5-min Rain = 0
KPFS 251340Z 00012G17KT 17/13 A2989 RMK A01 T01710133  RH  082%=      5-min Rain = 0
KPFS 251345Z 00009G14KT 17/13 A2989 RMK A01 T01720133  RH  081%=      5-min Rain = 0
KPFS 251350Z 00011G16KT 17/13 A2989 RMK A01 T01730133  RH  081%=      5-min Rain = 0
KPFS 251355Z 01009KT 17/13 A299 RMK A01 T01730133  RH  080%=      5-min Rain = 0
KPFS 251400Z 00013KT 17/13 A2989 RMK A01 T01740130  RH  079%=      5-min Rain = 0
KPFS 251405Z 00011G16KT 17/13 A299 RMK A01 T01740129  RH  078%=      5-min Rain = 0
KPFS 251410Z 01013G19KT 17/13 A299 RMK A01 T01740129  RH  078%=      5-min Rain = 0
KPFS 251415Z 01013G18KT 17/13 A299 RMK A01 T01740128  RH  077%=      5-min Rain = 0
KPFS 251420Z 00012G17KT 18/13 A2991 RMK A01 T01750127  RH  077%=      5-min Rain = 0
KPFS 251425Z 01014G21KT 18/13 A2991 RMK A01 T01750125  RH  075%=      5-min Rain = 0
KPFS 251430Z 01013G19KT 18/12 A2991 RMK A01 T01750117  RH  072%=      5-min Rain = 0
KPFS 251435Z 00014G20KT 17/11 A2991 RMK A01 T01740110  RH  068%=      5-min Rain = 0
KPFS 251440Z 00013G18KT 17/11 A2991 RMK A01 T01730108  RH  068%=      5-min Rain = 0
KPFS 251445Z 36012G17KT 17/11 A2991 RMK A01 T01740110  RH  068%=      5-min Rain = 0
KPFS 251450Z 00013G19KT 18/11 A2991 RMK A01 T01760111  RH  068%=      5-min Rain = 0
KPFS 251455Z 36011G16KT 18/11 A2991 RMK A01 T01760111  RH  068%=      5-min Rain = 0
KPFS 251500Z 35009G15KT 18/12 A2991 RMK A01 T01790116  RH  069%=      5-min Rain = 0
KPFS 251505Z 35009KT 18/12 A2991 RMK A01 T01800118  RH  069%=      5-min Rain = 0
KPFS 251510Z 35012KT 18/12 A2991 RMK A01 T01800116  RH  069%=      5-min Rain = 0
KPFS 251515Z 34012KT 18/11 A2992 RMK A01 T01800113  RH  067%=      5-min Rain = 0
KPFS 251520Z 34012G17KT 18/11 A2992 RMK A01 T01820111  RH  066%=      5-min Rain = 0
KPFS 251525Z 35013G18KT 18/11 A2992 RMK A01 T01820111  RH  065%=      5-min Rain = 0
KPFS 251530Z 36010G15KT 18/11 A2992 RMK A01 T01840114  RH  066%=      5-min Rain = 0
KPFS 251535Z 00011KT 19/12 A2992 RMK A01 T01850115  RH  066%=      5-min Rain = 0
KPFS 251540Z 00011KT 19/12 A2992 RMK A01 T01860115  RH  066%=      5-min Rain = 0
KPFS 251545Z 36010KT 19/12 A2992 RMK A01 T01880117  RH  066%=      5-min Rain = 0
KPFS 251550Z 36009KT 19/12 A2992 RMK A01 T01900121  RH  067%=      5-min Rain = 0
KPFS 251555Z 35011KT 19/12 A2992 RMK A01 T01900118  RH  065%=      5-min Rain = 0
KPFS 251600Z 35010G15KT 19/12 A2992 RMK A01 T01890119  RH  066%=      5-min Rain = 0
KPFS 251605Z 36012KT 19/12 A2992 RMK A01 T01890117  RH  065%=      5-min Rain = 0
KPFS 251610Z 35010KT 19/12 A2992 RMK A01 T01920120  RH  065%=      5-min Rain = 0
KPFS 251615Z 35012KT 19/12 A2992 RMK A01 T01920118  RH  065%=      5-min Rain = 0
KPFS 251620Z 00010G16KT 20/12 A2992 RMK A01 T01950120  RH  064%=      5-min Rain = 0
KPFS 251625Z 00012G17KT 19/12 A2992 RMK A01 T01910116  RH  064%=      5-min Rain = 0
KPFS 251630Z 01012KT 19/12 A2992 RMK A01 T01890115  RH  064%=      5-min Rain = 0
KPFS 251635Z 01011G16KT 19/12 A2992 RMK A01 T01920118  RH  064%=      5-min Rain = 0
KPFS 251640Z 00011G18KT 20/12 A2992 RMK A01 T01950119  RH  064%=      5-min Rain = 0
KPFS 251645Z 36011KT 19/12 A2992 RMK A01 T01940118  RH  064%=      5-min Rain = 0
KPFS 251650Z 35011KT 20/12 A2992 RMK A01 T01960119  RH  063%=      5-min Rain = 0
KPFS 251655Z 35010KT 20/12 A2992 RMK A01 T01960120  RH  064%=      5-min Rain = 0
KPFS 251700Z 35010KT 20/12 A2991 RMK A01 T01980120  RH  063%=      5-min Rain = 0
KPFS 251705Z 01011KT 20/12 A2992 RMK A01 T02000122  RH  063%=      5-min Rain = 0
KPFS 251710Z 36011KT 20/12 A2992 RMK A01 T02010121  RH  062%=      5-min Rain = 0
KPFS 251715Z 00010G16KT 20/12 A2992 RMK A01 T02030122  RH  062%=      5-min Rain = 0
KPFS 251720Z 01010KT 21/12 A2992 RMK A01 T02050123  RH  062%=      5-min Rain = 0
KPFS 251725Z 35009KT 21/13 A2992 RMK A01 T02060125  RH  062%=      5-min Rain = 0
KPFS 251730Z 34010G15KT 21/13 A2992 RMK A01 T02080127  RH  062%=      5-min Rain = 0
KPFS 251735Z 35011KT 21/12 A2992 RMK A01 T02060124  RH  062%=      5-min Rain = 0
KPFS 251740Z 35011G16KT 21/12 A2992 RMK A01 T02050123  RH  062%=      5-min Rain = 0
KPFS 251745Z 35012G18KT 21/12 A2992 RMK A01 T02060124  RH  062%=      5-min Rain = 0
KPFS 251750Z 36010G15KT 21/13 A2992 RMK A01 T02060125  RH  062%=      5-min Rain = 0
KPFS 251755Z 01011KT 21/13 A2992 RMK A01 T02110127  RH  061%=      5-min Rain = 0
KPFS 251800Z 36012G18KT 21/13 A2992 RMK A01 T02110128  RH  061%=      5-min Rain = 0
KPFS 251805Z 35010G16KT 21/13 A2992 RMK A01 T02100128  RH  062%=      5-min Rain = 0
KPFS 251810Z 35011G16KT 21/13 A2991 RMK A01 T02120129  RH  061%=      5-min Rain = 0
KPFS 251815Z 00011G16KT 21/13 A2991 RMK A01 T02110126  RH  061%=      5-min Rain = 0
KPFS 251820Z 01011KT 21/13 A2991 RMK A01 T02130128  RH  061%=      5-min Rain = 0
KPFS 251825Z 34010G15KT 21/13 A2991 RMK A01 T02140130  RH  061%=      5-min Rain = 0
KPFS 251830Z 36011KT 22/13 A2991 RMK A01 T02150129  RH  060%=      5-min Rain = 0
KPFS 251835Z 00011G16KT 21/13 A2991 RMK A01 T02130128  RH  061%=      5-min Rain = 0
KPFS 251840Z 36011G16KT 22/13 A299 RMK A01 T02170132  RH  061%=      5-min Rain = 0
KPFS 251845Z 34010KT 22/13 A299 RMK A01 T02180131  RH  060%=      5-min Rain = 0
KPFS 251850Z 36012G30KT 22/13 A299 RMK A01 T02190132  RH  060%=      5-min Rain = 0
KPFS 251855Z 00011G18KT 22/13 A299 RMK A01 T02180131  RH  060%=      5-min Rain = 0
KPFS 251900Z 35012G17KT 22/13 A2989 RMK A01 T02150131  RH  061%=      5-min Rain = 0
KPFS 251905Z 00011G18KT 22/13 A2989 RMK A01 T02180133  RH  061%=      5-min Rain = 0
KPFS 251910Z 36011G16KT 22/13 A299 RMK A01 T02160130  RH  060%=      5-min Rain = 0
KPFS 251915Z 35011KT 22/13 A2989 RMK A01 T02160128  RH  060%=      5-min Rain = 0
KPFS 251920Z 34009G14KT 22/13 A2989 RMK A01 T02170132  RH  061%=      5-min Rain = 0
KPFS 251925Z 02012G17KT 22/13 A2989 RMK A01 T02190132  RH  060%=      5-min Rain = 0
KPFS 251930Z 01010KT 22/13 A299 RMK A01 T02230133  RH  059%=      5-min Rain = 0
KPFS 251935Z 01011G16KT 23/14 A2989 RMK A01 T02260135  RH  059%=      5-min Rain = 0
KPFS 251940Z 00010G15KT 23/14 A2989 RMK A01 T02310137  RH  058%=      5-min Rain = 0
KPFS 251945Z 01010G16KT 23/14 A2989 RMK A01 T02320138  RH  058%=      5-min Rain = 0
KPFS 251950Z 01012G18KT 23/14 A2989 RMK A01 T02320135  RH  057%=      5-min Rain = 0
KPFS 251955Z 01013G18KT 23/13 A2989 RMK A01 T02300134  RH  057%=      5-min Rain = 0
KPFS 252000Z 00012KT 23/14 A2989 RMK A01 T02300137  RH  058%=      5-min Rain = 0
KPFS 252005Z 01013G19KT 23/14 A2988 RMK A01 T02300136  RH  058%=      5-min Rain = 0
KPFS 252010Z 36012G17KT 23/14 A2989 RMK A01 T02330137  RH  057%=      5-min Rain = 0
KPFS 252015Z 36011G18KT 24/14 A2988 RMK A01 T02360140  RH  057%=      5-min Rain = 0
KPFS 252020Z 36012G17KT 23/14 A2988 RMK A01 T02340138  RH  057%=      5-min Rain = 0
KPFS 252025Z 01014G20KT 23/14 A2988 RMK A01 T02340137  RH  057%=      5-min Rain = 0
KPFS 252030Z 35011KT 23/13 A2988 RMK A01 T02300134  RH  057%=      5-min Rain = 0
KPFS 252035Z 01013KT 23/14 A2988 RMK A01 T02340135  RH  056%=      5-min Rain = 0
KPFS 252040Z 01012G17KT 24/14 A2988 RMK A01 T02360136  RH  056%=      5-min Rain = 0
KPFS 252045Z 01012G17KT 23/13 A2988 RMK A01 T02310134  RH  056%=      5-min Rain = 0
KPFS 252050Z 01010G16KT 24/14 A2988 RMK A01 T02360138  RH  057%=      5-min Rain = 0
KPFS 252055Z 01011G16KT 23/14 A2988 RMK A01 T02330137  RH  057%=      5-min Rain = 0
KPFS 252100Z 01012KT 23/14 A2988 RMK A01 T02310137  RH  058%=      5-min Rain = 0
KPFS 252105Z 35011KT 23/13 A2988 RMK A01 T02290133  RH  057%=      5-min Rain = 0
KPFS 252110Z 35010G15KT 24/14 A2988 RMK A01 T02370135  RH  055%=      5-min Rain = 0
KPFS 252115Z 00011KT 24/13 A2988 RMK A01 T02350134  RH  056%=      5-min Rain = 0
KPFS 252120Z 00011KT 23/13 A2988 RMK A01 T02310132  RH  056%=      5-min Rain = 0
KPFS 252125Z 35010KT 23/13 A2988 RMK A01 T02340132  RH  055%=      5-min Rain = 0
KPFS 252130Z 01010KT 24/14 A2988 RMK A01 T02390135  RH  054%=      5-min Rain = 0
KPFS 252135Z 01009G14KT 24/14 A2988 RMK A01 T02410138  RH  055%=      5-min Rain = 0
KPFS 252140Z 01009G15KT 24/13 A2988 RMK A01 T02370132  RH  054%=      5-min Rain = 0
KPFS 252145Z 01010G15KT 24/13 A2988 RMK A01 T02350133  RH  055%=      5-min Rain = 0
KPFS 252150Z 01007KT 23/13 A2988 RMK A01 T02300132  RH  056%=      5-min Rain = 0
KPFS 252155Z 01010G15KT 23/13 A2988 RMK A01 T02280132  RH  057%=      5-min Rain = 0
KPFS 252200Z 36011KT 23/13 A2988 RMK A01 T02300131  RH  056%=      5-min Rain = 0
KPFS 252205Z 34008KT 24/13 A2988 RMK A01 T02350130  RH  054%=      5-min Rain = 0
KPFS 252210Z 01009G17KT 24/13 A2988 RMK A01 T02360131  RH  054%=      5-min Rain = 0
KPFS 252215Z 01009G16KT 24/14 A2988 RMK A01 T02420137  RH  054%=      5-min Rain = 0
KPFS 252220Z 35009G16KT 24/13 A2988 RMK A01 T02420132  RH  052%=      5-min Rain = 0
KPFS 252225Z 00011G16KT 23/13 A2988 RMK A01 T02290130  RH  056%=      5-min Rain = 0
KPFS 252230Z 35009G15KT 23/13 A2988 RMK A01 T02250130  RH  057%=      5-min Rain = 0
KPFS 252235Z 00009G15KT 23/13 A2988 RMK A01 T02290132  RH  057%=      5-min Rain = 0
KPFS 252240Z 35012G17KT 23/13 A2988 RMK A01 T02280131  RH  057%=      5-min Rain = 0
KPFS 252245Z 35012G17KT 23/13 A2988 RMK A01 T02250129  RH  057%=      5-min Rain = 0
KPFS 252250Z 35008KT 22/13 A2988 RMK A01 T02220131  RH  059%=      5-min Rain = 0
KPFS 252255Z 35008KT 22/13 A2988 RMK A01 T02210132  RH  059%=      5-min Rain = 0
KPFS 252300Z 36010G15KT 22/13 A2988 RMK A01 T02200129  RH  059%=      5-min Rain = 0
KPFS 252305Z 35010G16KT 22/13 A2989 RMK A01 T02190130  RH  059%=      5-min Rain = 0
KPFS 252310Z 35012KT 22/13 A2989 RMK A01 T02190129  RH  059%=      5-min Rain = 0
KPFS 252315Z 35011G17KT 22/13 A2989 RMK A01 T02200128  RH  058%=      5-min Rain = 0
KPFS 252320Z 35010G15KT 22/13 A2989 RMK A01 T02200130  RH  059%=      5-min Rain = 0
KPFS 252325Z 35011G16KT 22/13 A2989 RMK A01 T02180129  RH  059%=      5-min Rain = 0
KPFS 252330Z 35013G18KT 22/13 A2989 RMK A01 T02160130  RH  060%=      5-min Rain = 0
KPFS 252335Z 34012KT 22/13 A2989 RMK A01 T02170129  RH  060%=      5-min Rain = 0
KPFS 252340Z 34014G21KT 22/13 A2989 RMK A01 T02170130  RH  060%=      5-min Rain = 0
KPFS 252345Z 34013G20KT 22/13 A2989 RMK A01 T02170132  RH  061%=      5-min Rain = 0
KPFS 252350Z 35015G20KT 22/13 A2989 RMK A01 T02180132  RH  060%=      5-min Rain = 0
KPFS 252355Z 34014G19KT 22/13 A2989 RMK A01 T02150132  RH  061%=      5-min Rain = 0
KPFS 260000Z 35011G17KT 21/13 A2989 RMK A01 T02140133  RH  062%=      5-min Rain = 0
KPFS 260005Z 00013G18KT 21/13 A2989 RMK A01 T02130131  RH  062%=      5-min Rain = 0
KPFS 260010Z 00013G18KT 21/13 A299 RMK A01 T02130131  RH  062%=      5-min Rain = 0
KPFS 260015Z 36013G18KT 21/13 A299 RMK A01 T02120131  RH  062%=      5-min Rain = 0
KPFS 260020Z 35012KT 21/13 A299 RMK A01 T02080131  RH  064%=      5-min Rain = 0
KPFS 260025Z 36011G16KT 21/13 A2991 RMK A01 T02060132  RH  065%=      5-min Rain = 0
KPFS 260030Z 35010KT 21/13 A2991 RMK A01 T02050131  RH  065%=      5-min Rain = 0
KPFS 260035Z 36012G17KT 21/13 A2991 RMK A01 T02060130  RH  064%=      5-min Rain = 0
KPFS 260040Z 00011KT 21/13 A299 RMK A01 T02060129  RH  064%=      5-min Rain = 0
KPFS 260045Z 35010KT 21/13 A2991 RMK A01 T02060130  RH  064%=      5-min Rain = 0
KPFS 260050Z 00011G17KT 21/13 A2991 RMK A01 T02050130  RH  065%=      5-min Rain = 0
KPFS 260055Z 36012G17KT 20/13 A2991 RMK A01 T02040128  RH  064%=      5-min Rain = 0
KPFS 260100Z 00009KT 20/13 A2991 RMK A01 T02030130  RH  065%=      5-min Rain = 0
KPFS 260105Z 00008KT 20/13 A2992 RMK A01 T02030131  RH  066%=      5-min Rain = 0
KPFS 260110Z 36008KT 20/13 A2992 RMK A01 T02020132  RH  067%=      5-min Rain = 0
KPFS 260115Z 36007KT 20/13 A2992 RMK A01 T02010134  RH  068%=      5-min Rain = 0
KPFS 260120Z 00008G13KT 20/13 A2992 RMK A01 T02000132  RH  068%=      5-min Rain = 0
KPFS 260125Z 36010KT 20/13 A2993 RMK A01 T02000129  RH  066%=      5-min Rain = 0
KPFS 260130Z 36009KT 20/13 A2993 RMK A01 T01990129  RH  066%=      5-min Rain = 0
KPFS 260135Z 36007G12KT 20/13 A2993 RMK A01 T01980130  RH  067%=      5-min Rain = 0
KPFS 260140Z 36008G13KT 20/13 A2993 RMK A01 T01970129  RH  067%=      5-min Rain = 0
KPFS 260145Z 00008KT 20/13 A2993 RMK A01 T01960131  RH  069%=      5-min Rain = 0
KPFS 260150Z 35007KT 19/13 A2993 RMK A01 T01940133  RH  071%=      5-min Rain = 0
KPFS 260155Z 35008KT 19/13 A2993 RMK A01 T01930134  RH  071%=      5-min Rain = 0
KPFS 260200Z 35008KT 19/13 A2993 RMK A01 T01940132  RH  070%=      5-min Rain = 0
KPFS 260205Z 35009KT 19/13 A2993 RMK A01 T01930130  RH  069%=      5-min Rain = 0
KPFS 260210Z 35009KT 19/13 A2994 RMK A01 T01920130  RH  070%=      5-min Rain = 0
KPFS 260215Z 35010KT 19/13 A2994 RMK A01 T01910129  RH  070%=      5-min Rain = 0
KPFS 260220Z 35009KT 19/13 A2994 RMK A01 T01890129  RH  071%=      5-min Rain = 0
KPFS 260225Z 35009KT 19/13 A2994 RMK A01 T01870129  RH  072%=      5-min Rain = 0
KPFS 260230Z 36009KT 19/13 A2994 RMK A01 T01860128  RH  072%=      5-min Rain = 0
KPFS 260235Z 36010KT 19/13 A2994 RMK A01 T01860127  RH  071%=      5-min Rain = 0
KPFS 260240Z 36009KT 19/13 A2994 RMK A01 T01850126  RH  071%=      5-min Rain = 0
KPFS 260245Z 00008KT 18/13 A2994 RMK A01 T01840127  RH  072%=      5-min Rain = 0
KPFS 260250Z 02007KT 18/13 A2994 RMK A01 T01830128  RH  073%=      5-min Rain = 0
KPFS 260255Z 03008KT 18/13 A2993 RMK A01 T01820130  RH  074%=      5-min Rain = 0
KPFS 260300Z 03007KT 18/13 A2993 RMK A01 T01810130  RH  075%=      5-min Rain = 0
KPFS 260305Z 03006KT 18/13 A2993 RMK A01 T01810131  RH  076%=      5-min Rain = 0
KPFS 260310Z 03005KT 18/13 A2993 RMK A01 T01790131  RH  076%=      5-min Rain = 0
KPFS 260315Z 03005KT 18/13 A2993 RMK A01 T01790131  RH  076%=      5-min Rain = 0
KPFS 260320Z 01005KT 18/13 A2994 RMK A01 T01780131  RH  077%=      5-min Rain = 0
KPFS 260325Z 35005KT 18/13 A2994 RMK A01 T01760131  RH  078%=      5-min Rain = 0
KPFS 260330Z 34002KT 18/13 A2995 RMK A01 T01750131  RH  079%=      5-min Rain = 0
KPFS 260335Z 35003KT 17/13 A2996 RMK A01 T01720132  RH  080%=      5-min Rain = 0
KPFS 260340Z 33003KT 17/13 A2997 RMK A01 T01710133  RH  082%=      5-min Rain = 0
KPFS 260345Z 32005KT 17/13 A2998 RMK A01 T01680134  RH  084%=      5-min Rain = 0
KPFS 260350Z 32006KT 17/14 A2998 RMK A01 T01660135  RH  085%=      5-min Rain = 0
KPFS 260355Z 32006KT 17/13 A2998 RMK A01 T01650134  RH  085%=      5-min Rain = 0
KPFS 260400Z 32006KT 17/13 A2998 RMK A01 T01650132  RH  084%=      5-min Rain = 0
KPFS 260405Z 31006KT 16/13 A2999 RMK A01 T01640131  RH  084%=      5-min Rain = 0
KPFS 260410Z 31006KT 16/13 A2999 RMK A01 T01630130  RH  084%=      5-min Rain = 0
KPFS 260415Z 32006KT 16/13 A2999 RMK A01 T01620130  RH  085%=      5-min Rain = 0
KPFS 260420Z 32007KT 16/13 A2999 RMK A01 T01630129  RH  084%=      5-min Rain = 0
KPFS 260425Z 33007KT 17/13 A30 RMK A01 T01650127  RH  081%=      5-min Rain = 0
KPFS 260430Z 34007KT 17/13 A30 RMK A01 T01670127  RH  081%=      5-min Rain = 0
KPFS 260435Z 34007KT 17/13 A30 RMK A01 T01670127  RH  080%=      5-min Rain = 0
KPFS 260440Z 33008G13KT 17/13 A2999 RMK A01 T01690127  RH  079%=      5-min Rain = 0
KPFS 260445Z 33007KT 17/13 A30 RMK A01 T01690126  RH  079%=      5-min Rain = 0
KPFS 260450Z 34007KT 17/13 A2999 RMK A01 T01700125  RH  078%=      5-min Rain = 0
KPFS 260455Z 34008KT 17/12 A2999 RMK A01 T01700124  RH  078%=      5-min Rain = 0

Page generated in 0.0193 seconds.